Austell, Georgia
Current Conditions -  °F | °C
As of 8:53 PM on Wednesday 26 Nov 2014 (Local Time) from KFTY Reporting Station
Overcast Overcast  
Wind Chill: 45°   Ceiling: 9000
Heat Index: 45°   Visibility: 10mi
Dew Point: 28°   Wind: 0mph
Humidity: 52%   Direction: NA
Pressure: 30.07"   Gusts: NA
Location:  33.82°N, 84.64°W
Report Text: KFTY 270153Z 00000KT 10SM OVC090 07/M02 A3007 RMK AO2 SLP183 T00721022
Loading
Personal Weather Stations






























Interactive Weather Map New forecast layout! Learn more

10-Day Weather Forecast

Advertisements
Track Severe Weather on mobile